createdAt,value
2023-04-14T00:00:13.963Z,5.65
2023-04-14T00:02:19.657Z,8.13
2023-04-14T00:04:22.637Z,6.53
2023-04-14T00:06:27.300Z,4.40
2023-04-14T00:08:30.075Z,4.25
2023-04-14T00:10:32.883Z,4.78
2023-04-14T00:12:35.691Z,7.05
2023-04-14T00:14:38.419Z,3.17
2023-04-14T00:16:42.831Z,8.23
2023-04-14T00:18:46.980Z,8.32
2023-04-14T00:20:49.819Z,9.27
2023-04-14T00:22:52.588Z,5.28
2023-04-14T00:24:55.389Z,6.25
2023-04-14T00:26:58.201Z,3.78
2023-04-14T00:29:01.280Z,7.43
2023-04-14T00:31:04.268Z,6.68
2023-04-14T00:33:07.847Z,6.47
2023-04-14T00:35:12.055Z,5.30
2023-04-14T00:37:14.818Z,9.35
2023-04-14T00:39:17.562Z,5.13
2023-04-14T00:41:20.315Z,6.50
2023-04-14T00:43:23.199Z,7.75
2023-04-14T00:45:27.348Z,6.47
2023-04-14T00:47:30.159Z,8.20
2023-04-14T00:49:32.959Z,6.25
2023-04-14T00:51:37.675Z,8.77
2023-04-14T00:53:41.545Z,6.07
2023-04-14T00:55:44.703Z,4.95
2023-04-14T00:57:48.056Z,7.20
2023-04-14T00:59:51.021Z,9.48
2023-04-14T01:01:55.907Z,5.40
2023-04-14T01:03:59.692Z,8.60
2023-04-14T01:06:03.613Z,7.40
2023-04-14T01:08:07.924Z,6.78
2023-04-14T01:10:11.856Z,8.40
2023-04-14T01:12:19.721Z,9.85
2023-04-14T01:14:34.060Z,6.32
2023-04-14T01:16:41.360Z,7.85
2023-04-14T01:18:54.574Z,6.22
2023-04-14T01:21:00.557Z,5.72
2023-04-14T01:23:08.156Z,7.78
2023-04-14T01:25:37.961Z,6.85
2023-04-14T01:27:50.835Z,9.57
2023-04-14T01:30:10.690Z,4.07
2023-04-14T01:32:20.505Z,9.73
2023-04-14T01:34:30.417Z,5.10
2023-04-14T01:36:41.437Z,6.15
2023-04-14T01:38:46.738Z,3.88
2023-04-14T01:40:53.592Z,7.43
2023-04-14T01:43:02.741Z,6.57
2023-04-14T01:45:22.932Z,5.30
2023-04-14T01:47:29.162Z,4.95
2023-04-14T01:49:37.334Z,4.95
2023-04-14T01:51:44.702Z,4.78
2023-04-14T01:53:50.599Z,7.03
2023-04-14T01:55:55.491Z,6.07
2023-04-14T01:57:59.082Z,8.75
2023-04-14T02:00:04.520Z,6.47
2023-04-14T02:02:18.673Z,9.77
2023-04-14T02:04:26.630Z,8.70
2023-04-14T02:06:31.796Z,7.07
2023-04-14T02:08:36.256Z,6.15
2023-04-14T02:10:41.611Z,6.18
2023-04-14T02:12:45.546Z,7.53
2023-04-14T02:14:51.091Z,7.03
2023-04-14T02:16:57.299Z,36.22
2023-04-14T02:19:01.586Z,33.70
2023-04-14T02:21:06.974Z,29.63
2023-04-14T02:23:10.009Z,19.50
2023-04-14T02:25:12.913Z,10.07
2023-04-14T02:27:20.040Z,9.82
2023-04-14T02:29:24.724Z,10.80
2023-04-14T02:31:31.315Z,6.97
2023-04-14T02:33:37.930Z,5.18
2023-04-14T02:35:47.291Z,4.95
2023-04-14T02:37:56.076Z,4.90
2023-04-14T02:40:04.469Z,5.95
2023-04-14T02:42:13.931Z,13.18
2023-04-14T02:44:20.564Z,7.35
2023-04-14T02:46:26.823Z,7.18
2023-04-14T02:48:30.813Z,6.65
2023-04-14T02:50:35.074Z,6.50
2023-04-14T02:52:51.414Z,7.10
2023-04-14T02:54:58.502Z,5.63
2023-04-14T02:57:02.262Z,5.07
2023-04-14T02:59:08.168Z,7.55
2023-04-14T03:01:17.237Z,6.13
2023-04-14T03:03:21.278Z,9.25
2023-04-14T03:05:25.613Z,14.18
2023-04-14T03:07:36.754Z,22.88
2023-04-14T03:09:41.348Z,14.13
2023-04-14T03:11:46.357Z,20.63
2023-04-14T03:13:53.535Z,15.07
2023-04-14T03:15:59.446Z,14.85
2023-04-14T03:18:05.448Z,10.15
2023-04-14T03:20:11.001Z,8.52
2023-04-14T03:22:15.468Z,8.80
2023-04-14T03:24:24.415Z,9.80
2023-04-14T03:26:33.076Z,6.18
2023-04-14T03:28:41.219Z,9.00
2023-04-14T03:30:49.163Z,5.72
2023-04-14T03:32:53.586Z,5.60
2023-04-14T03:34:59.228Z,7.18
2023-04-14T03:37:05.461Z,5.97
2023-04-14T03:39:14.504Z,6.53
2023-04-14T03:41:22.151Z,4.50
2023-04-14T03:43:27.270Z,6.35
2023-04-14T03:45:40.150Z,13.60
2023-04-14T03:47:44.160Z,5.82
2023-04-14T03:49:50.294Z,6.93
2023-04-14T03:51:55.771Z,6.85
2023-04-14T03:54:00.775Z,6.50
2023-04-14T03:56:06.467Z,7.03
2023-04-14T03:58:11.827Z,8.55
2023-04-14T04:00:16.781Z,5.07
2023-04-14T04:02:24.718Z,5.57
2023-04-14T04:04:28.588Z,6.20
2023-04-14T04:06:33.729Z,4.72
2023-04-14T04:08:37.994Z,3.97
2023-04-14T04:10:43.799Z,5.53
2023-04-14T04:12:48.849Z,8.25
2023-04-14T04:14:52.556Z,6.30
2023-04-14T04:16:57.016Z,9.52
2023-04-14T04:19:07.296Z,7.82
2023-04-14T04:21:11.608Z,8.23
2023-04-14T04:23:18.075Z,3.92
2023-04-14T04:25:21.269Z,6.95
2023-04-14T04:27:34.685Z,5.15
2023-04-14T04:29:45.187Z,4.22
2023-04-14T04:31:48.557Z,2.90
2023-04-14T04:33:52.506Z,4.80
2023-04-14T04:35:58.629Z,5.10
2023-04-14T04:38:11.310Z,5.97
2023-04-14T04:40:16.880Z,5.78
2023-04-14T04:42:20.231Z,8.02
2023-04-14T04:44:23.009Z,6.78
2023-04-14T04:46:54.320Z,6.63
2023-04-14T04:49:01.131Z,48.88
2023-04-14T04:51:05.471Z,75.82
2023-04-14T04:53:08.193Z,52.30
2023-04-14T04:55:11.688Z,61.70
2023-04-14T04:57:14.465Z,24.70
2023-04-14T04:59:17.471Z,28.65
2023-04-14T05:01:20.363Z,27.98
2023-04-14T05:03:23.203Z,17.00
2023-04-14T05:05:26.103Z,13.43
2023-04-14T05:07:30.193Z,10.60
2023-04-14T05:09:33.024Z,20.52
2023-04-14T05:11:36.150Z,10.77
2023-04-14T05:13:39.027Z,8.65
2023-04-14T05:15:42.100Z,10.10
2023-04-14T05:17:44.943Z,5.82
2023-04-14T05:19:47.734Z,6.85
2023-04-14T05:21:50.508Z,4.95
2023-04-14T05:23:54.629Z,5.53
2023-04-14T05:26:07.245Z,7.18
2023-04-14T05:28:20.357Z,14.40
2023-04-14T05:30:23.312Z,6.15
2023-04-14T05:32:28.987Z,6.18
2023-04-14T05:34:32.143Z,6.72
2023-04-14T05:36:34.898Z,5.07
2023-04-14T05:38:40.134Z,6.35
2023-04-14T05:40:44.469Z,7.60
2023-04-14T05:42:47.328Z,6.47
2023-04-14T05:44:50.089Z,4.47
2023-04-14T05:46:52.983Z,3.35
2023-04-14T05:48:56.861Z,6.28
2023-04-14T05:50:59.672Z,7.38
2023-04-14T05:53:02.637Z,5.75
2023-04-14T05:55:06.114Z,4.95
2023-04-14T05:57:10.207Z,7.07
2023-04-14T05:59:13.155Z,6.50
2023-04-14T06:01:16.453Z,7.53
2023-04-14T06:03:19.419Z,7.00
2023-04-14T06:05:24.294Z,5.93
2023-04-14T06:07:27.235Z,7.45
2023-04-14T06:09:30.003Z,3.53
2023-04-14T06:11:32.952Z,5.53
2023-04-14T06:13:37.047Z,4.03
2023-04-14T06:15:39.806Z,4.18
2023-04-14T06:17:42.588Z,7.95
2023-04-14T06:19:46.877Z,4.80
2023-04-14T06:21:49.645Z,8.40
2023-04-14T06:23:52.416Z,6.68
2023-04-14T06:25:55.624Z,4.78
2023-04-14T06:27:58.426Z,4.75
2023-04-14T06:30:02.874Z,8.45
2023-04-14T06:32:05.746Z,6.18
2023-04-14T06:34:08.548Z,3.78
2023-04-14T06:36:11.365Z,4.95
2023-04-14T06:38:14.151Z,5.00
2023-04-14T06:40:16.984Z,6.25
2023-04-14T06:42:19.722Z,3.35
2023-04-14T06:44:23.708Z,4.95
2023-04-14T06:46:28.025Z,6.05
2023-04-14T06:48:30.866Z,6.05
2023-04-14T06:50:33.655Z,4.95
2023-04-14T06:52:36.498Z,5.07
2023-04-14T06:54:39.285Z,5.25
2023-04-14T06:56:42.073Z,4.53
2023-04-14T06:58:44.858Z,3.65
2023-04-14T07:00:47.663Z,3.65
2023-04-14T07:02:51.869Z,5.70
2023-04-14T07:04:54.800Z,5.45
2023-04-14T07:07:00.750Z,5.80
2023-04-14T07:09:03.557Z,4.38
2023-04-14T07:11:08.763Z,6.63
2023-04-14T07:13:11.588Z,5.47
2023-04-14T07:15:15.399Z,7.30
2023-04-14T07:17:18.579Z,3.35
2023-04-14T07:19:22.682Z,4.50
2023-04-14T07:21:25.488Z,6.25
2023-04-14T07:23:28.905Z,3.85
2023-04-14T07:25:31.684Z,5.47
2023-04-14T07:27:34.492Z,4.75
2023-04-14T07:29:37.421Z,5.53
2023-04-14T07:31:40.302Z,3.63
2023-04-14T07:33:43.087Z,6.38
2023-04-14T07:36:00.683Z,5.85
2023-04-14T07:38:04.552Z,8.27
2023-04-14T07:40:08.928Z,4.97
2023-04-14T07:42:12.602Z,4.07
2023-04-14T07:44:15.381Z,8.00
2023-04-14T07:46:18.269Z,3.90
2023-04-14T07:48:21.544Z,6.72
2023-04-14T07:50:24.703Z,5.00
2023-04-14T07:52:28.986Z,4.10
2023-04-14T07:54:32.079Z,3.72
2023-04-14T07:56:34.903Z,4.72
2023-04-14T07:58:37.821Z,5.22
2023-04-14T08:00:40.574Z,3.10
2023-04-14T08:02:43.856Z,7.10
2023-04-14T08:04:46.813Z,5.80
2023-04-14T08:06:49.550Z,7.07
2023-04-14T08:08:53.708Z,3.40
2023-04-14T08:10:56.495Z,4.43
2023-04-14T08:13:00.190Z,6.80
2023-04-14T08:15:04.818Z,3.50
2023-04-14T08:17:07.583Z,4.00
2023-04-14T08:19:10.476Z,6.13
2023-04-14T08:21:13.267Z,5.53
2023-04-14T08:23:16.183Z,3.53
2023-04-14T08:25:20.377Z,3.50
2023-04-14T08:27:23.146Z,5.78
2023-04-14T08:29:26.344Z,4.97
2023-04-14T08:31:29.196Z,4.13
2023-04-14T08:33:33.794Z,3.80
2023-04-14T08:35:41.497Z,3.50
2023-04-14T08:37:46.225Z,3.38
2023-04-14T08:39:48.990Z,2.83
2023-04-14T08:41:54.225Z,6.15
2023-04-14T08:43:57.198Z,3.17
2023-04-14T08:46:02.052Z,3.65
2023-04-14T08:48:05.910Z,2.33
2023-04-14T08:50:14.405Z,5.90
2023-04-14T08:52:21.952Z,3.95
2023-04-14T08:54:25.816Z,3.58
2023-04-14T08:56:32.954Z,2.38
2023-04-14T08:58:37.138Z,2.03
2023-04-14T09:00:41.111Z,2.60
2023-04-14T09:02:44.538Z,1.73
2023-04-14T09:04:47.978Z,2.70
2023-04-14T09:06:50.897Z,3.67
2023-04-14T09:08:54.095Z,5.32
2023-04-14T09:10:56.896Z,3.83
2023-04-14T09:13:01.384Z,3.15
2023-04-14T09:15:06.932Z,4.78
2023-04-14T09:17:10.172Z,5.05
2023-04-14T09:19:13.009Z,4.80
2023-04-14T09:21:30.335Z,7.10
2023-04-14T09:23:41.813Z,2.72
2023-04-14T09:25:44.701Z,3.85
2023-04-14T09:27:48.983Z,4.70
2023-04-14T09:29:52.704Z,3.45
2023-04-14T09:31:57.117Z,3.97
2023-04-14T09:34:00.197Z,3.40
2023-04-14T09:36:03.133Z,4.37
2023-04-14T09:38:08.007Z,3.30
2023-04-14T09:40:11.970Z,4.63
2023-04-14T09:42:14.753Z,3.57
2023-04-14T09:44:17.555Z,2.43
2023-04-14T09:46:20.529Z,5.00
2023-04-14T09:48:25.348Z,3.00
2023-04-14T09:50:28.169Z,4.10
2023-04-14T09:52:39.170Z,3.07
2023-04-14T09:54:43.070Z,4.30
2023-04-14T09:56:46.882Z,2.20
2023-04-14T09:58:50.400Z,3.43
2023-04-14T10:00:53.264Z,2.93
2023-04-14T10:02:59.122Z,2.57
2023-04-14T10:05:07.513Z,3.17
2023-04-14T10:07:12.217Z,2.37
2023-04-14T10:09:21.907Z,3.13
2023-04-14T10:11:26.221Z,2.80
2023-04-14T10:13:29.016Z,2.83
2023-04-14T10:15:31.962Z,3.73
2023-04-14T10:17:34.812Z,4.00
2023-04-14T10:19:39.025Z,4.20
2023-04-14T10:21:43.293Z,4.17
2023-04-14T10:23:47.238Z,3.60
2023-04-14T10:25:51.416Z,2.47
2023-04-14T10:27:54.469Z,3.67
2023-04-14T10:29:57.442Z,5.07
2023-04-14T10:32:05.463Z,3.97
2023-04-14T10:34:10.846Z,2.73
2023-04-14T10:36:14.092Z,4.00
2023-04-14T10:38:18.433Z,2.70
2023-04-14T10:40:23.078Z,2.20
2023-04-14T10:42:26.926Z,4.53
2023-04-14T10:44:31.671Z,3.57
2023-04-14T10:46:44.453Z,7.50
2023-04-14T10:48:49.869Z,6.73
2023-04-14T10:50:56.700Z,4.63
2023-04-14T10:53:00.401Z,3.07
2023-04-14T10:55:11.608Z,3.13
2023-04-14T10:57:15.540Z,2.67
2023-04-14T10:59:18.385Z,4.20
2023-04-14T11:01:31.127Z,3.90
2023-04-14T11:03:45.343Z,2.00
2023-04-14T11:05:50.713Z,3.23
2023-04-14T11:08:00.801Z,2.93
2023-04-14T11:10:28.383Z,3.93
2023-04-14T11:12:31.491Z,2.90
2023-04-14T11:14:36.400Z,3.70
2023-04-14T11:16:44.649Z,5.23
2023-04-14T11:18:55.591Z,2.93
2023-04-14T11:21:04.279Z,3.27
2023-04-14T11:23:07.069Z,4.43
2023-04-14T11:25:13.089Z,4.63
2023-04-14T11:27:17.924Z,2.43
2023-04-14T11:29:20.775Z,4.20
2023-04-14T11:31:28.166Z,4.13
2023-04-14T11:33:32.524Z,4.60
2023-04-14T11:35:35.520Z,3.13
2023-04-14T11:37:38.333Z,3.43
2023-04-14T11:39:41.371Z,5.23
2023-04-14T11:41:47.576Z,3.07
2023-04-14T11:43:51.806Z,3.47
2023-04-14T11:45:54.736Z,3.47
2023-04-14T11:47:59.318Z,4.10
2023-04-14T11:50:07.143Z,3.60
2023-04-14T11:52:09.987Z,6.60
2023-04-14T11:54:13.669Z,4.07
2023-04-14T11:56:17.324Z,5.07
2023-04-14T11:58:23.774Z,4.43
2023-04-14T12:00:28.571Z,9.10
2023-04-14T12:02:31.422Z,5.00
2023-04-14T12:04:34.818Z,2.60
2023-04-14T12:06:39.096Z,3.33
2023-04-14T12:08:41.917Z,2.30
2023-04-14T12:10:46.790Z,1.13
2023-04-14T12:12:49.556Z,9.50
2023-04-14T12:14:52.448Z,20.90
2023-04-14T12:16:56.717Z,5.43
2023-04-14T12:18:59.832Z,3.83
2023-04-14T12:21:05.940Z,3.33
2023-04-14T12:23:10.270Z,1.97
2023-04-14T12:25:13.882Z,3.37
2023-04-14T12:27:19.672Z,4.53
2023-04-14T12:29:22.903Z,2.40
2023-04-14T12:31:30.432Z,1.60
2023-04-14T12:33:35.198Z,2.50
2023-04-14T12:35:37.952Z,2.43
2023-04-14T12:37:41.532Z,2.43
2023-04-14T12:39:51.972Z,3.80
2023-04-14T12:41:55.570Z,3.43
2023-04-14T12:43:58.628Z,4.00
2023-04-14T12:46:03.722Z,1.93
2023-04-14T12:48:06.979Z,1.83
2023-04-14T12:50:29.087Z,2.80
2023-04-14T12:52:38.075Z,3.67
2023-04-14T12:54:48.770Z,2.13
2023-04-14T12:56:51.554Z,3.90
2023-04-14T12:58:55.313Z,3.87
2023-04-14T13:00:58.120Z,3.17
2023-04-14T13:03:01.037Z,2.37
2023-04-14T13:05:04.092Z,1.77
2023-04-14T13:07:08.219Z,3.10
2023-04-14T13:09:11.593Z,2.40
2023-04-14T13:11:14.697Z,3.37
2023-04-14T13:13:17.494Z,2.40
2023-04-14T13:15:27.883Z,3.50
2023-04-14T13:17:43.130Z,2.67
2023-04-14T13:19:46.066Z,2.23
2023-04-14T13:21:48.825Z,4.17
2023-04-14T13:23:52.925Z,4.23
2023-04-14T13:25:56.106Z,7.43
2023-04-14T13:27:58.866Z,4.13
2023-04-14T13:30:02.429Z,3.33
2023-04-14T13:32:09.696Z,2.90
2023-04-14T13:34:12.508Z,1.77
2023-04-14T13:36:15.644Z,4.23
2023-04-14T13:38:18.655Z,3.23
2023-04-14T13:40:22.846Z,2.73
2023-04-14T13:42:25.603Z,3.63
2023-04-14T13:44:28.852Z,2.27
2023-04-14T13:46:40.288Z,4.53
2023-04-14T13:48:44.128Z,2.00
2023-04-14T13:50:47.444Z,1.70
2023-04-14T13:52:50.277Z,2.83
2023-04-14T13:54:53.119Z,2.33
2023-04-14T13:56:57.707Z,5.17
2023-04-14T13:59:00.915Z,3.57
2023-04-14T14:01:10.855Z,3.57
2023-04-14T14:03:13.742Z,3.27
2023-04-14T14:05:16.885Z,2.00
2023-04-14T14:07:19.665Z,2.40
2023-04-14T14:09:22.463Z,16.23
2023-04-14T14:11:25.244Z,3.87
2023-04-14T14:13:29.625Z,2.23
2023-04-14T14:15:32.476Z,3.67
2023-04-14T14:17:36.782Z,2.17
2023-04-14T14:19:40.002Z,5.03
2023-04-14T14:21:43.961Z,2.97
2023-04-14T14:23:47.267Z,4.83
2023-04-14T14:25:50.153Z,4.43
2023-04-14T14:27:53.068Z,3.90
2023-04-14T14:29:57.238Z,3.13
2023-04-14T14:32:00.049Z,3.37
2023-04-14T14:34:02.983Z,5.37
2023-04-14T14:36:06.909Z,3.07
2023-04-14T14:38:09.694Z,4.93
2023-04-14T14:40:13.676Z,3.93
2023-04-14T14:42:16.433Z,7.67
2023-04-14T14:44:19.208Z,6.40
2023-04-14T14:46:23.908Z,7.97
2023-04-14T14:48:26.696Z,3.07
2023-04-14T14:50:29.436Z,2.77
2023-04-14T14:52:34.437Z,12.23
2023-04-14T14:54:37.654Z,4.40
2023-04-14T14:56:40.546Z,5.30
2023-04-14T14:58:43.408Z,3.00
2023-04-14T15:00:46.762Z,4.40
2023-04-14T15:02:51.236Z,24.57
2023-04-14T15:04:54.608Z,2.80
2023-04-14T15:06:57.459Z,3.43
2023-04-14T15:09:00.660Z,1.97
2023-04-14T15:11:03.535Z,2.27
2023-04-14T15:13:07.324Z,3.07
2023-04-14T15:15:10.878Z,1.70
2023-04-14T15:17:13.661Z,2.00
2023-04-14T15:19:17.762Z,1.60
2023-04-14T15:21:20.608Z,2.37
2023-04-14T15:23:23.360Z,3.07
2023-04-14T15:25:26.173Z,19.23
2023-04-14T15:27:28.871Z,3.00
2023-04-14T15:29:31.702Z,5.17
2023-04-14T15:31:34.640Z,2.53
2023-04-14T15:33:37.388Z,1.77
2023-04-14T15:35:42.136Z,4.57
2023-04-14T15:37:45.030Z,3.20
2023-04-14T15:39:47.778Z,3.80
2023-04-14T15:41:51.329Z,4.97
2023-04-14T15:43:54.118Z,4.63
2023-04-14T15:45:56.942Z,2.27
2023-04-14T15:47:59.802Z,2.70
2023-04-14T15:50:09.830Z,1.27
2023-04-14T15:52:14.890Z,2.27
2023-04-14T15:54:17.716Z,1.70
2023-04-14T15:56:23.055Z,2.33
2023-04-14T15:58:27.334Z,1.27
2023-04-14T16:00:30.146Z,2.27
2023-04-14T16:02:35.519Z,3.80
2023-04-14T16:04:38.480Z,4.10
2023-04-14T16:06:41.341Z,1.97
2023-04-14T16:08:45.525Z,4.03
2023-04-14T16:10:48.832Z,3.13
2023-04-14T16:12:51.598Z,6.27
2023-04-14T16:14:54.945Z,4.23
2023-04-14T16:16:57.691Z,3.97
2023-04-14T16:19:00.770Z,5.87
2023-04-14T16:21:03.850Z,4.53
2023-04-14T16:23:06.608Z,8.03
2023-04-14T16:25:11.265Z,8.83
2023-04-14T16:27:14.030Z,8.47
2023-04-14T16:29:16.797Z,6.80
2023-04-14T16:31:19.635Z,3.13
2023-04-14T16:33:22.363Z,4.63
2023-04-14T16:35:25.740Z,9.93
2023-04-14T16:37:28.498Z,9.57
2023-04-14T16:39:31.646Z,6.83
2023-04-14T16:41:36.204Z,3.30
2023-04-14T16:43:38.929Z,3.20
2023-04-14T16:45:41.958Z,2.43
2023-04-14T16:47:44.755Z,3.00
2023-04-14T16:49:50.046Z,3.00
2023-04-14T16:51:52.803Z,3.33
2023-04-14T16:53:57.042Z,3.80
2023-04-14T16:56:04.326Z,3.80
2023-04-14T16:58:09.612Z,2.10
2023-04-14T17:00:13.792Z,2.63
2023-04-14T17:02:16.679Z,2.07
2023-04-14T17:04:19.828Z,2.13
2023-04-14T17:06:22.794Z,3.80
2023-04-14T17:08:25.583Z,2.97
2023-04-14T17:10:29.691Z,7.20
2023-04-14T17:12:32.727Z,8.17
2023-04-14T17:14:37.313Z,7.20
2023-04-14T17:16:40.201Z,5.13
2023-04-14T17:18:43.981Z,4.23
2023-04-14T17:20:47.051Z,3.83
2023-04-14T17:22:51.283Z,2.63
2023-04-14T17:24:55.676Z,2.90
2023-04-14T17:26:58.441Z,4.47
2023-04-14T17:29:01.382Z,2.67
2023-04-14T17:31:12.618Z,4.10
2023-04-14T17:33:16.798Z,3.73
2023-04-14T17:35:19.990Z,5.57
2023-04-14T17:37:23.177Z,4.10
2023-04-14T17:39:27.688Z,4.43
2023-04-14T17:41:30.882Z,4.33
2023-04-14T17:43:37.850Z,3.77
2023-04-14T17:45:43.796Z,4.67
2023-04-14T17:47:47.937Z,5.73
2023-04-14T17:49:51.150Z,5.00
2023-04-14T17:51:56.219Z,5.03
2023-04-14T17:53:59.497Z,6.07
2023-04-14T17:56:02.462Z,5.40
2023-04-14T17:58:05.821Z,4.87
2023-04-14T18:00:11.093Z,6.67
2023-04-14T18:02:16.830Z,7.37
2023-04-14T18:04:21.327Z,9.40
2023-04-14T18:06:24.273Z,5.97
2023-04-14T18:08:27.029Z,3.60
2023-04-14T18:10:29.863Z,3.43
2023-04-14T18:12:33.350Z,9.07
2023-04-14T18:14:36.699Z,6.73
2023-04-14T18:16:39.519Z,6.37
2023-04-14T18:18:42.351Z,4.10
2023-04-14T18:20:50.103Z,6.20
2023-04-14T18:22:54.123Z,6.00
2023-04-14T18:24:56.903Z,25.33
2023-04-14T18:26:59.813Z,19.17
2023-04-14T18:29:02.820Z,19.70
2023-04-14T18:31:06.553Z,16.15
2023-04-14T18:33:09.351Z,11.52
2023-04-14T18:35:12.987Z,5.93
2023-04-14T18:37:17.104Z,7.18
2023-04-14T18:39:20.764Z,4.70
2023-04-14T18:41:23.565Z,3.50
2023-04-14T18:43:26.409Z,3.25
2023-04-14T18:45:29.186Z,6.18
2023-04-14T18:47:32.055Z,4.70
2023-04-14T18:49:35.341Z,5.22
2023-04-14T18:51:38.130Z,4.75
2023-04-14T18:53:44.008Z,3.55
2023-04-14T18:55:48.345Z,7.25
2023-04-14T18:57:52.794Z,7.47
2023-04-14T18:59:55.752Z,6.53
2023-04-14T19:01:59.558Z,7.18
2023-04-14T19:04:03.070Z,8.70
2023-04-14T19:06:06.180Z,5.75
2023-04-14T19:08:08.981Z,5.38
2023-04-14T19:10:13.132Z,6.05
2023-04-14T19:14:24.397Z,4.82
2023-04-14T19:16:27.585Z,7.13
2023-04-14T19:18:30.403Z,4.72
2023-04-14T19:20:33.607Z,5.85
2023-04-14T19:22:36.336Z,3.13
2023-04-14T19:24:39.153Z,3.20
2023-04-14T19:26:43.250Z,6.20
2023-04-14T19:28:46.052Z,2.95
2023-04-14T19:30:48.855Z,3.80
2023-04-14T19:32:53.364Z,2.70
2023-04-14T19:34:56.369Z,2.65
2023-04-14T19:36:59.131Z,2.55
2023-04-14T19:39:02.025Z,5.20
2023-04-14T19:41:05.045Z,6.70
2023-04-14T19:43:09.101Z,8.55
2023-04-14T19:45:12.215Z,8.30
2023-04-14T19:47:14.921Z,8.70
2023-04-14T19:49:17.670Z,7.22
2023-04-14T19:51:21.340Z,8.55
2023-04-14T19:53:24.914Z,6.90
2023-04-14T19:55:27.693Z,6.50
2023-04-14T19:57:30.538Z,6.60
2023-04-14T19:59:34.666Z,4.53
2023-04-14T20:01:37.607Z,4.82
2023-04-14T20:04:04.999Z,3.85
2023-04-14T20:06:03.706Z,6.00
2023-04-14T20:08:07.057Z,3.63
2023-04-14T20:10:10.767Z,5.13
2023-04-14T20:12:14.472Z,21.98
2023-04-14T20:14:17.953Z,15.88
2023-04-14T20:16:26.957Z,27.98
2023-04-14T20:18:30.693Z,4.57
2023-04-14T20:20:33.715Z,3.63
2023-04-14T20:22:36.969Z,3.40
2023-04-14T20:24:39.798Z,2.58
2023-04-14T20:26:43.632Z,4.05
2023-04-14T20:28:47.473Z,2.55
2023-04-14T20:30:52.667Z,3.15
2023-04-14T20:32:56.900Z,2.80
2023-04-14T20:35:00.193Z,1.80
2023-04-14T20:37:02.959Z,3.03
2023-04-14T20:39:06.430Z,3.05
2023-04-14T20:41:09.161Z,2.75
2023-04-14T20:43:12.044Z,3.03
2023-04-14T20:45:14.862Z,2.25
2023-04-14T20:47:17.699Z,5.38
2023-04-14T20:49:22.184Z,4.05
2023-04-14T20:51:25.212Z,3.25
2023-04-14T20:53:29.988Z,3.67
2023-04-14T20:55:32.834Z,4.95
2023-04-14T20:57:35.581Z,2.67
2023-04-14T20:59:38.317Z,4.75
2023-04-14T21:01:42.678Z,4.05
2023-04-14T21:03:45.590Z,4.68
2023-04-14T21:05:49.743Z,3.28
2023-04-14T21:07:52.734Z,4.93
2023-04-14T21:09:55.508Z,2.28
2023-04-14T21:12:14.720Z,4.03
2023-04-14T21:15:40.489Z,3.60
2023-04-14T21:16:41.827Z,4.07
2023-04-14T21:18:44.704Z,6.75
2023-04-14T21:20:48.816Z,4.10
2023-04-14T21:22:52.175Z,5.97
2023-04-14T21:24:55.074Z,5.25
2023-04-14T21:26:58.016Z,4.05
2023-04-14T21:29:01.113Z,5.72
2023-04-14T21:31:04.569Z,5.80
2023-04-14T21:33:08.782Z,4.68
2023-04-14T21:35:21.302Z,6.05
2023-04-14T21:37:25.557Z,4.72
2023-04-14T21:39:29.941Z,6.30
2023-04-14T21:41:33.096Z,5.20
2023-04-14T21:43:36.284Z,4.72
2023-04-14T21:45:39.293Z,4.22
2023-04-14T21:47:42.727Z,3.22
2023-04-14T21:49:45.596Z,6.50
2023-04-14T21:51:48.452Z,7.55
2023-04-14T21:53:52.667Z,6.10
2023-04-14T21:56:08.737Z,8.60
2023-04-14T21:58:13.606Z,8.10
2023-04-14T22:00:17.428Z,6.57
2023-04-14T22:02:20.502Z,6.07
2023-04-14T22:04:35.331Z,6.47
2023-04-14T22:06:39.549Z,4.68
2023-04-14T22:08:42.357Z,3.80
2023-04-14T22:10:47.387Z,3.78
2023-04-14T22:12:50.641Z,3.78
2023-04-14T22:14:53.783Z,10.55
2023-04-14T22:16:56.614Z,9.50
2023-04-14T22:18:59.579Z,8.27
2023-04-14T22:21:03.069Z,6.95
2023-04-14T22:23:05.940Z,7.25
2023-04-14T22:25:11.538Z,21.00
2023-04-14T22:27:15.687Z,26.60
2023-04-14T22:29:18.731Z,58.85
2023-04-14T22:31:21.793Z,15.40
2023-04-14T22:33:24.596Z,8.52
2023-04-14T22:35:27.442Z,8.10
2023-04-14T22:37:30.199Z,12.60
2023-04-14T22:39:32.962Z,7.05
2023-04-14T22:41:35.835Z,6.97
2023-04-14T22:43:39.896Z,4.35
2023-04-14T22:45:42.609Z,6.90
2023-04-14T22:47:45.615Z,4.55
2023-04-14T22:49:48.533Z,4.57
2023-04-14T22:51:51.745Z,5.43
2023-04-14T22:53:54.466Z,4.13
2023-04-14T22:55:58.193Z,4.35
2023-04-14T22:58:01.046Z,4.07
2023-04-14T23:00:09.060Z,7.78
2023-04-14T23:02:12.710Z,8.38
2023-04-14T23:04:15.643Z,11.80
2023-04-14T23:06:19.844Z,9.32
2023-04-14T23:08:22.544Z,8.38
2023-04-14T23:10:25.438Z,7.38
2023-04-14T23:12:28.396Z,8.63
2023-04-14T23:14:32.287Z,6.82
2023-04-14T23:16:36.554Z,5.93
2023-04-14T23:18:40.009Z,6.85
2023-04-14T23:20:43.165Z,7.20
2023-04-14T23:22:45.917Z,6.38
2023-04-14T23:24:50.175Z,7.75
2023-04-14T23:26:52.895Z,5.72
2023-04-14T23:28:55.763Z,5.35
2023-04-14T23:30:58.808Z,5.32
2023-04-14T23:33:03.029Z,4.90
2023-04-14T23:35:06.915Z,8.52
2023-04-14T23:37:09.645Z,4.63
2023-04-14T23:39:12.587Z,5.57
2023-04-14T23:41:15.609Z,5.20
2023-04-14T23:43:18.304Z,7.22
2023-04-14T23:45:21.065Z,7.97
2023-04-14T23:47:23.866Z,6.68
2023-04-14T23:49:34.849Z,8.35
2023-04-14T23:51:38.514Z,7.85
2023-04-14T23:53:41.598Z,7.80
2023-04-14T23:55:44.585Z,6.80
2023-04-14T23:57:47.321Z,5.75
2023-04-14T23:59:50.010Z,6.70
